createdAt,value
2023-12-16T00:01:45.266Z,20.07
2023-12-16T00:04:13.511Z,19.97
2023-12-16T00:06:41.445Z,20.30
2023-12-16T00:09:10.794Z,19.80
2023-12-16T00:11:38.832Z,19.83
2023-12-16T00:14:07.014Z,20.50
2023-12-16T00:16:34.997Z,20.57
2023-12-16T00:19:02.967Z,20.83
2023-12-16T00:21:30.918Z,20.63
2023-12-16T00:23:58.841Z,20.53
2023-12-16T00:26:28.111Z,21.17
2023-12-16T00:28:56.000Z,20.43
2023-12-16T00:31:23.959Z,20.87
2023-12-16T00:33:52.031Z,20.50
2023-12-16T00:36:19.987Z,20.70
2023-12-16T00:38:47.893Z,20.40
2023-12-16T00:41:15.851Z,20.27
2023-12-16T00:43:45.112Z,20.40
2023-12-16T00:46:13.062Z,20.43
2023-12-16T00:48:41.450Z,21.00
2023-12-16T00:51:09.424Z,20.33
2023-12-16T00:53:37.560Z,20.73
2023-12-16T00:56:06.888Z,20.80
2023-12-16T00:58:34.823Z,21.40
2023-12-16T01:01:04.227Z,21.77
2023-12-16T01:03:32.276Z,21.67
2023-12-16T01:06:00.216Z,21.90
2023-12-16T01:08:28.139Z,21.40
2023-12-16T01:10:56.072Z,22.13
2023-12-16T01:13:24.040Z,21.73
2023-12-16T01:15:52.416Z,21.80
2023-12-16T01:18:21.814Z,21.77
2023-12-16T01:20:49.831Z,21.90
2023-12-16T01:23:17.786Z,22.07
2023-12-16T01:25:45.927Z,22.00
2023-12-16T01:28:14.583Z,22.10
2023-12-16T01:30:42.617Z,22.10
2023-12-16T01:33:10.667Z,22.27
2023-12-16T01:35:40.177Z,22.43
2023-12-16T01:38:08.148Z,23.03
2023-12-16T01:40:36.103Z,23.70
2023-12-16T01:43:06.114Z,24.00
2023-12-16T01:45:34.182Z,23.77
2023-12-16T01:48:04.369Z,24.27
2023-12-16T01:50:32.547Z,23.80
2023-12-16T01:53:02.204Z,24.37
2023-12-16T01:55:30.513Z,23.93
2023-12-16T01:57:58.808Z,25.23
2023-12-16T02:00:26.756Z,24.47
2023-12-16T02:02:54.877Z,25.50
2023-12-16T02:05:22.830Z,24.90
2023-12-16T02:07:50.807Z,26.27
2023-12-16T02:10:20.501Z,26.80
2023-12-16T02:12:48.511Z,27.17
2023-12-16T02:15:16.498Z,27.00
2023-12-16T02:17:44.497Z,27.00
2023-12-16T02:20:15.196Z,26.33
2023-12-16T02:22:43.150Z,27.30
2023-12-16T02:25:14.090Z,27.17
2023-12-16T02:27:42.725Z,28.43
2023-12-16T02:30:11.261Z,28.57
2023-12-16T02:32:39.491Z,28.83
2023-12-16T02:35:08.501Z,28.73
2023-12-16T02:37:36.753Z,28.67
2023-12-16T02:40:05.484Z,28.63
2023-12-16T02:42:34.816Z,29.13
2023-12-16T02:45:02.711Z,28.87
2023-12-16T02:47:30.695Z,29.67
2023-12-16T02:49:58.677Z,30.83
2023-12-16T02:52:26.830Z,30.57
2023-12-16T02:54:54.828Z,29.87
2023-12-16T02:57:22.798Z,29.63
2023-12-16T02:59:52.268Z,30.00
2023-12-16T03:02:20.219Z,29.93
2023-12-16T03:04:48.168Z,29.97
2023-12-16T03:07:16.137Z,30.97
2023-12-16T03:09:44.125Z,32.07
2023-12-16T03:12:12.113Z,31.20
2023-12-16T03:14:42.377Z,32.13
2023-12-16T03:17:11.742Z,32.13
2023-12-16T03:19:39.733Z,31.97
2023-12-16T03:22:07.795Z,32.33
2023-12-16T03:24:36.002Z,32.70
2023-12-16T03:27:03.969Z,33.57
2023-12-16T03:29:32.441Z,33.97
2023-12-16T03:32:00.479Z,34.63
2023-12-16T03:34:31.572Z,34.17
2023-12-16T03:36:59.606Z,35.03
2023-12-16T03:39:27.543Z,35.27
2023-12-16T03:41:55.501Z,35.67
2023-12-16T03:44:23.584Z,35.80
2023-12-16T03:46:51.508Z,34.83
2023-12-16T03:49:19.868Z,33.73
2023-12-16T03:51:49.242Z,34.27
2023-12-16T03:54:17.269Z,34.17
2023-12-16T03:56:45.232Z,33.40
2023-12-16T03:59:13.159Z,33.67
2023-12-16T04:01:45.908Z,33.47
2023-12-16T04:04:14.080Z,33.67
2023-12-16T04:06:42.089Z,34.40
2023-12-16T04:09:11.369Z,35.03
2023-12-16T04:11:47.056Z,34.70
2023-12-16T04:14:15.028Z,35.67
2023-12-16T04:16:43.006Z,35.90
2023-12-16T04:19:11.713Z,37.10
2023-12-16T04:21:39.734Z,37.40
2023-12-16T04:24:08.469Z,36.57
2023-12-16T04:26:38.633Z,37.80
2023-12-16T04:29:06.592Z,37.07
2023-12-16T04:31:34.532Z,36.67
2023-12-16T04:34:01.732Z,38.40
2023-12-16T04:36:30.489Z,40.10
2023-12-16T04:38:58.659Z,40.10
2023-12-16T04:41:26.629Z,39.83
2023-12-16T04:43:55.937Z,40.73
2023-12-16T04:46:24.347Z,43.43
2023-12-16T04:48:52.531Z,43.97
2023-12-16T04:51:22.305Z,45.37
2023-12-16T04:53:50.294Z,45.40
2023-12-16T04:56:18.274Z,46.43
2023-12-16T04:58:46.379Z,46.07
2023-12-16T05:01:15.687Z,49.17
2023-12-16T05:03:43.757Z,51.47
2023-12-16T05:06:11.806Z,53.50
2023-12-16T05:08:39.814Z,56.53
2023-12-16T05:11:07.903Z,58.23
2023-12-16T05:13:35.811Z,59.23
2023-12-16T05:16:03.816Z,61.07
2023-12-16T05:18:33.139Z,62.53
2023-12-16T05:21:01.110Z,62.57
2023-12-16T05:23:29.047Z,63.37
2023-12-16T05:25:56.971Z,64.67
2023-12-16T05:28:25.000Z,65.93
2023-12-16T05:30:52.998Z,67.27
2023-12-16T05:33:21.029Z,67.97
2023-12-16T05:35:50.491Z,64.90
2023-12-16T05:38:18.489Z,68.30
2023-12-16T05:40:46.401Z,68.70
2023-12-16T05:43:14.415Z,68.87
2023-12-16T05:45:42.418Z,67.47
2023-12-16T05:48:10.428Z,67.10
2023-12-16T05:50:38.615Z,68.17
2023-12-16T05:53:08.268Z,70.67
2023-12-16T05:55:36.259Z,72.47
2023-12-16T05:58:04.375Z,72.90
2023-12-16T06:00:32.414Z,74.20
2023-12-16T06:03:00.665Z,76.30
2023-12-16T06:05:29.115Z,76.37
2023-12-16T06:07:57.160Z,78.60
2023-12-16T06:10:26.856Z,79.60
2023-12-16T06:12:54.828Z,79.50
2023-12-16T06:15:22.775Z,79.10
2023-12-16T06:17:50.889Z,81.67
2023-12-16T06:20:19.088Z,81.03
2023-12-16T06:22:47.332Z,81.07
2023-12-16T06:25:15.464Z,81.23
2023-12-16T06:27:45.312Z,79.10
2023-12-16T06:30:14.840Z,78.80
2023-12-16T06:32:42.810Z,78.10
2023-12-16T06:35:11.172Z,78.20
2023-12-16T06:37:39.361Z,77.27
2023-12-16T06:40:09.290Z,79.47
2023-12-16T06:42:37.343Z,78.27
2023-12-16T06:45:08.122Z,79.03
2023-12-16T06:47:36.929Z,76.17
2023-12-16T06:50:05.495Z,78.03
2023-12-16T06:52:33.485Z,80.20
2023-12-16T06:55:01.510Z,77.97
2023-12-16T06:57:29.835Z,76.00
2023-12-16T06:59:57.750Z,76.77
2023-12-16T07:02:27.735Z,72.30
2023-12-16T07:04:55.868Z,73.10
2023-12-16T07:07:23.850Z,74.83
2023-12-16T07:09:51.898Z,75.40
2023-12-16T07:12:20.024Z,73.27
2023-12-16T07:14:48.569Z,75.77
2023-12-16T07:17:16.599Z,74.00
2023-12-16T07:19:45.927Z,74.87
2023-12-16T07:22:17.826Z,75.47
2023-12-16T07:24:46.353Z,76.37
2023-12-16T07:27:14.285Z,70.57
2023-12-16T07:29:42.854Z,72.70
2023-12-16T07:32:11.016Z,73.37
2023-12-16T07:34:39.061Z,73.27
2023-12-16T07:37:08.407Z,70.53
2023-12-16T07:39:36.340Z,73.90
2023-12-16T07:42:04.476Z,72.73
2023-12-16T07:44:32.420Z,70.13
2023-12-16T07:47:00.343Z,72.83
2023-12-16T07:49:28.381Z,71.47
2023-12-16T07:51:58.674Z,69.10
2023-12-16T07:54:29.046Z,63.30
2023-12-16T07:56:57.413Z,67.40
2023-12-16T07:59:25.358Z,63.03
2023-12-16T08:01:55.126Z,61.00
2023-12-16T08:04:24.552Z,60.13
2023-12-16T08:06:52.574Z,58.80
2023-12-16T08:09:20.520Z,58.93
2023-12-16T08:11:49.807Z,59.13
2023-12-16T08:14:17.771Z,57.03
2023-12-16T08:16:45.707Z,60.17
2023-12-16T08:19:13.673Z,59.77
2023-12-16T08:21:41.623Z,58.97
2023-12-16T08:24:09.686Z,54.70
2023-12-16T08:26:37.752Z,58.50
2023-12-16T08:29:07.017Z,56.23
2023-12-16T08:31:35.165Z,56.53
2023-12-16T08:34:03.807Z,56.50
2023-12-16T08:36:31.877Z,56.40
2023-12-16T08:38:59.769Z,55.97
2023-12-16T08:41:28.109Z,56.00
2023-12-16T08:43:56.043Z,52.47
2023-12-16T08:46:26.657Z,53.00
2023-12-16T08:48:57.157Z,51.60
2023-12-16T08:51:25.367Z,51.87
2023-12-16T08:53:54.361Z,50.90
2023-12-16T08:56:22.419Z,48.83
2023-12-16T08:58:50.427Z,48.93
2023-12-16T09:01:18.648Z,50.60
2023-12-16T09:03:48.528Z,50.07
2023-12-16T09:06:17.092Z,48.20
2023-12-16T09:08:45.271Z,49.47
2023-12-16T09:11:13.289Z,47.27
2023-12-16T09:13:41.249Z,47.27
2023-12-16T09:16:10.000Z,46.20
2023-12-16T09:18:38.766Z,45.43
2023-12-16T09:21:08.766Z,46.83
2023-12-16T09:23:37.866Z,47.73
2023-12-16T09:26:06.337Z,46.07
2023-12-16T09:28:34.465Z,46.27
2023-12-16T09:31:02.673Z,46.87
2023-12-16T09:33:30.790Z,45.73
2023-12-16T09:35:58.840Z,43.17
2023-12-16T09:38:28.299Z,42.40
2023-12-16T09:40:57.278Z,43.17
2023-12-16T09:43:25.275Z,43.83
2023-12-16T09:45:53.219Z,44.57
2023-12-16T09:48:22.626Z,46.50
2023-12-16T09:50:50.658Z,47.97
2023-12-16T09:53:18.667Z,48.83
2023-12-16T09:55:49.855Z,48.07
2023-12-16T09:58:20.544Z,51.00
2023-12-16T10:00:48.950Z,51.00
2023-12-16T10:03:18.298Z,53.30
2023-12-16T10:05:46.751Z,54.17
2023-12-16T10:08:15.132Z,55.33
2023-12-16T10:10:51.163Z,57.10
2023-12-16T10:13:24.031Z,60.07
2023-12-16T10:15:51.973Z,62.40
2023-12-16T10:18:20.211Z,65.17
2023-12-16T10:20:48.594Z,63.00
2023-12-16T10:23:16.591Z,65.93
2023-12-16T10:25:44.970Z,70.60
2023-12-16T10:28:12.934Z,69.33
2023-12-16T10:30:42.286Z,68.07
2023-12-16T10:33:11.808Z,69.27
2023-12-16T10:35:39.933Z,69.03
2023-12-16T10:38:10.157Z,69.70
2023-12-16T10:40:38.734Z,71.70
2023-12-16T10:43:09.452Z,67.07
2023-12-16T10:45:37.869Z,70.07
2023-12-16T10:48:12.611Z,68.60
2023-12-16T10:50:45.029Z,66.30
2023-12-16T10:53:20.136Z,66.37
2023-12-16T10:55:58.029Z,65.57
2023-12-16T10:58:27.478Z,65.33
2023-12-16T11:01:02.882Z,65.40
2023-12-16T11:03:38.635Z,67.30
2023-12-16T11:06:10.232Z,67.77
2023-12-16T11:08:38.885Z,66.00
2023-12-16T11:11:08.102Z,67.27
2023-12-16T11:13:37.337Z,69.97
2023-12-16T11:16:12.388Z,70.90
2023-12-16T11:18:44.553Z,71.63
2023-12-16T11:21:15.617Z,70.60
2023-12-16T11:23:46.694Z,72.90
2023-12-16T11:26:14.758Z,75.97
2023-12-16T11:28:43.400Z,75.47
2023-12-16T11:31:11.766Z,76.00
2023-12-16T11:33:48.313Z,75.80
2023-12-16T11:36:16.501Z,74.90
2023-12-16T11:38:47.671Z,74.63
2023-12-16T11:41:43.151Z,75.57
2023-12-16T11:44:12.648Z,79.23
2023-12-16T11:46:43.156Z,79.00
2023-12-16T11:49:15.946Z,77.00
2023-12-16T11:51:45.313Z,79.13
2023-12-16T11:54:13.883Z,78.83
2023-12-16T11:56:42.881Z,79.97
2023-12-16T11:59:10.923Z,83.87
2023-12-16T12:01:39.112Z,87.00
2023-12-16T12:04:08.678Z,87.63
2023-12-16T12:06:38.529Z,91.27
2023-12-16T12:09:07.167Z,86.00
2023-12-16T12:11:35.164Z,84.13
2023-12-16T12:14:03.588Z,87.07
2023-12-16T12:16:32.236Z,83.83
2023-12-16T12:19:00.348Z,83.43
2023-12-16T12:21:29.073Z,85.83
2023-12-16T12:23:58.662Z,87.23
2023-12-16T12:26:27.029Z,88.80
2023-12-16T12:28:59.953Z,84.50
2023-12-16T12:31:28.665Z,82.50
2023-12-16T12:33:56.887Z,85.70
2023-12-16T12:36:25.821Z,84.70
2023-12-16T12:38:54.721Z,82.63
2023-12-16T12:41:24.064Z,84.30
2023-12-16T12:43:51.972Z,83.80
2023-12-16T12:46:20.165Z,86.07
2023-12-16T12:48:56.760Z,82.93
2023-12-16T12:51:26.877Z,84.87
2023-12-16T12:54:00.197Z,86.97
2023-12-16T12:56:31.701Z,87.77
2023-12-16T12:59:00.741Z,87.70
2023-12-16T13:01:28.797Z,86.47
2023-12-16T13:03:56.786Z,85.13
2023-12-16T13:06:24.848Z,84.87
2023-12-16T13:08:53.678Z,85.17
2023-12-16T13:11:21.638Z,85.63
2023-12-16T13:13:50.876Z,85.47
2023-12-16T13:16:18.951Z,86.90
2023-12-16T13:18:53.745Z,87.77
2023-12-16T13:21:22.575Z,86.27
2023-12-16T13:23:51.407Z,87.63
2023-12-16T13:26:19.629Z,83.67
2023-12-16T13:28:47.721Z,84.10
2023-12-16T13:31:17.193Z,86.37
2023-12-16T13:33:45.374Z,87.23
2023-12-16T13:36:33.279Z,86.37
2023-12-16T13:39:01.596Z,85.00
2023-12-16T13:41:29.664Z,83.07
2023-12-16T13:43:57.619Z,83.77
2023-12-16T13:46:27.125Z,86.27
2023-12-16T13:48:55.163Z,85.20
2023-12-16T13:51:23.220Z,82.50
2023-12-16T13:53:51.853Z,85.20
2023-12-16T13:56:19.956Z,88.17
2023-12-16T13:58:47.892Z,88.07
2023-12-16T14:01:16.101Z,87.10
2023-12-16T14:03:45.796Z,84.73
2023-12-16T14:06:14.088Z,87.70
2023-12-16T14:08:42.165Z,90.43
2023-12-16T14:11:10.123Z,90.73
2023-12-16T14:13:38.284Z,88.17
2023-12-16T14:16:07.136Z,87.37
2023-12-16T14:18:35.199Z,87.87
2023-12-16T14:21:04.999Z,87.63
2023-12-16T14:23:32.937Z,89.00
2023-12-16T14:26:00.872Z,88.23
2023-12-16T14:28:29.762Z,92.00
2023-12-16T14:30:57.925Z,91.33
2023-12-16T14:33:26.313Z,87.60
2023-12-16T14:35:54.294Z,88.43
2023-12-16T14:38:24.404Z,89.87
2023-12-16T14:40:52.382Z,92.33
2023-12-16T14:43:20.281Z,89.20
2023-12-16T14:45:48.212Z,91.03
2023-12-16T14:48:16.555Z,90.00
2023-12-16T14:50:44.697Z,91.07
2023-12-16T14:53:12.842Z,93.30
2023-12-16T14:55:42.096Z,91.80
2023-12-16T14:58:10.010Z,88.83
2023-12-16T15:00:38.462Z,86.50
2023-12-16T15:03:10.046Z,87.37
2023-12-16T15:05:38.161Z,88.33
2023-12-16T15:08:06.880Z,82.90
2023-12-16T15:10:34.793Z,83.80
2023-12-16T15:13:08.449Z,84.57
2023-12-16T15:15:36.746Z,89.00
2023-12-16T15:18:04.898Z,87.63
2023-12-16T15:20:32.890Z,88.13
2023-12-16T15:23:01.236Z,89.63
2023-12-16T15:25:29.154Z,92.73
2023-12-16T15:27:57.060Z,91.23
2023-12-16T15:30:26.458Z,92.90
2023-12-16T15:32:54.494Z,90.03
2023-12-16T15:35:23.283Z,92.43
2023-12-16T15:37:51.206Z,88.10
2023-12-16T15:40:19.292Z,84.53
2023-12-16T15:42:47.230Z,88.07
2023-12-16T15:45:16.057Z,79.67
2023-12-16T15:47:45.729Z,76.60
2023-12-16T15:50:13.932Z,79.80
2023-12-16T15:52:42.025Z,72.13
2023-12-16T15:55:10.880Z,66.73
2023-12-16T15:57:41.942Z,71.50
2023-12-16T16:00:12.777Z,79.40
2023-12-16T16:02:40.851Z,82.10
2023-12-16T16:05:10.814Z,80.60
2023-12-16T16:07:38.981Z,81.87
2023-12-16T16:10:08.266Z,74.37
2023-12-16T16:12:36.180Z,74.73
2023-12-16T16:15:05.177Z,69.73
2023-12-16T16:17:45.984Z,66.17
2023-12-16T16:20:15.747Z,62.97
2023-12-16T16:22:43.809Z,64.83
2023-12-16T16:25:12.855Z,67.30
2023-12-16T16:27:41.138Z,69.90
2023-12-16T16:30:10.620Z,74.00
2023-12-16T16:32:39.003Z,72.37
2023-12-16T16:35:08.981Z,70.43
2023-12-16T16:37:38.543Z,68.47
2023-12-16T16:40:07.355Z,68.73
2023-12-16T16:42:35.294Z,67.27
2023-12-16T16:45:03.229Z,64.33
2023-12-16T16:47:31.301Z,64.13
2023-12-16T16:49:59.964Z,65.63
2023-12-16T16:52:27.975Z,66.80
2023-12-16T16:54:57.245Z,66.30
2023-12-16T16:57:27.258Z,65.63
2023-12-16T16:59:55.420Z,67.97
2023-12-16T17:02:23.369Z,66.23
2023-12-16T17:04:51.964Z,66.57
2023-12-16T17:07:20.133Z,65.33
2023-12-16T17:09:48.036Z,71.93
2023-12-16T17:12:18.117Z,68.53
2023-12-16T17:14:46.171Z,66.27
2023-12-16T17:17:14.174Z,64.67
2023-12-16T17:19:43.068Z,65.47
2023-12-16T17:22:13.665Z,67.10
2023-12-16T17:24:42.139Z,66.77
2023-12-16T17:27:11.552Z,65.70
2023-12-16T17:29:40.945Z,68.87
2023-12-16T17:32:08.902Z,74.30
2023-12-16T17:34:38.297Z,68.37
2023-12-16T17:37:06.443Z,68.17
2023-12-16T17:39:34.398Z,72.50
2023-12-16T17:42:02.644Z,69.03
2023-12-16T17:44:30.590Z,68.03
2023-12-16T17:47:00.037Z,66.10
2023-12-16T17:49:28.015Z,64.53
2023-12-16T17:51:56.536Z,66.07
2023-12-16T17:54:24.569Z,65.70
2023-12-16T17:56:52.546Z,62.77
2023-12-16T17:59:20.520Z,63.83
2023-12-16T18:01:49.757Z,61.70
2023-12-16T18:04:19.197Z,62.80
2023-12-16T18:06:52.619Z,62.47
2023-12-16T18:09:21.248Z,63.53
2023-12-16T18:11:49.742Z,60.33
2023-12-16T18:14:18.966Z,62.63
2023-12-16T18:16:48.100Z,60.70
2023-12-16T18:19:16.238Z,60.67
2023-12-16T18:21:45.707Z,59.57
2023-12-16T18:24:13.737Z,58.90
2023-12-16T18:26:41.750Z,62.00
2023-12-16T18:29:09.671Z,59.90
2023-12-16T18:31:37.793Z,63.23
2023-12-16T18:34:07.620Z,60.57
2023-12-16T18:36:35.971Z,61.97
2023-12-16T18:39:05.620Z,64.17
2023-12-16T18:41:33.863Z,62.73
2023-12-16T18:44:01.835Z,66.67
2023-12-16T18:46:33.078Z,64.23
2023-12-16T18:49:01.130Z,63.37
2023-12-16T18:51:29.471Z,64.50
2023-12-16T18:53:58.245Z,63.50
2023-12-16T18:56:27.673Z,63.10
2023-12-16T18:58:55.820Z,65.70
2023-12-16T19:01:23.969Z,63.07
2023-12-16T19:03:52.072Z,62.60
2023-12-16T19:06:20.185Z,63.13
2023-12-16T19:08:48.258Z,63.60
2023-12-16T19:11:16.275Z,66.40
2023-12-16T19:13:45.529Z,65.87
2023-12-16T19:16:13.481Z,63.73
2023-12-16T19:18:42.047Z,66.57
2023-12-16T19:21:10.110Z,71.00
2023-12-16T19:23:38.076Z,67.17
2023-12-16T19:26:06.265Z,67.67
2023-12-16T19:28:34.909Z,66.03
2023-12-16T19:31:04.718Z,64.73
2023-12-16T19:33:37.662Z,66.87
2023-12-16T19:36:07.227Z,66.70
2023-12-16T19:38:35.451Z,64.13
2023-12-16T19:41:04.865Z,67.03
2023-12-16T19:43:33.002Z,67.83
2023-12-16T19:46:03.909Z,63.87
2023-12-16T19:48:33.371Z,65.87
2023-12-16T19:51:03.809Z,65.80
2023-12-16T19:53:32.913Z,66.40
2023-12-16T19:56:00.850Z,65.40
2023-12-16T19:58:28.744Z,71.40
2023-12-16T20:00:56.726Z,74.10
2023-12-16T20:03:24.856Z,72.40
2023-12-16T20:05:54.485Z,68.67
2023-12-16T20:08:23.057Z,69.43
2023-12-16T20:10:51.043Z,71.73
2023-12-16T20:13:18.962Z,65.57
2023-12-16T20:15:46.878Z,67.70
2023-12-16T20:18:15.540Z,65.73
2023-12-16T20:20:43.816Z,66.50
2023-12-16T20:23:14.337Z,67.30
2023-12-16T20:25:42.548Z,64.90
2023-12-16T20:28:10.712Z,65.77
2023-12-16T20:30:38.851Z,63.40
2023-12-16T20:33:06.960Z,64.93
2023-12-16T20:35:34.954Z,65.53
2023-12-16T20:38:05.468Z,66.10
2023-12-16T20:40:36.532Z,66.33
2023-12-16T20:43:06.301Z,67.03
2023-12-16T20:45:34.369Z,67.33
2023-12-16T20:48:03.291Z,66.70
2023-12-16T20:50:31.617Z,65.23
2023-12-16T20:53:00.384Z,69.20
2023-12-16T20:55:30.600Z,65.60
2023-12-16T20:57:59.905Z,70.33
2023-12-16T21:00:27.949Z,69.10
2023-12-16T21:02:55.987Z,73.97
2023-12-16T21:05:24.600Z,71.67
2023-12-16T21:07:52.746Z,71.60
2023-12-16T21:10:20.826Z,69.50
2023-12-16T21:12:49.119Z,67.10
2023-12-16T21:15:18.485Z,66.27
2023-12-16T21:17:47.022Z,67.70
2023-12-16T21:20:15.183Z,66.70
2023-12-16T21:22:43.126Z,65.03
2023-12-16T21:25:11.106Z,67.37
2023-12-16T21:27:39.262Z,64.57
2023-12-16T21:30:11.437Z,64.37
2023-12-16T21:32:41.396Z,64.70
2023-12-16T21:35:10.032Z,66.90
2023-12-16T21:37:38.224Z,65.50
2023-12-16T21:40:09.516Z,67.70
2023-12-16T21:42:37.704Z,68.43
2023-12-16T21:45:06.465Z,66.60
2023-12-16T21:47:34.506Z,70.03
2023-12-16T21:50:04.865Z,72.13
2023-12-16T21:52:33.021Z,71.40
2023-12-16T21:55:00.968Z,69.57
2023-12-16T21:57:30.526Z,66.17
2023-12-16T21:59:58.626Z,66.33
2023-12-16T22:02:26.681Z,65.93
2023-12-16T22:04:54.780Z,65.50
2023-12-16T22:07:24.053Z,67.83
2023-12-16T22:09:52.052Z,69.20
2023-12-16T22:12:20.092Z,69.43
2023-12-16T22:14:48.393Z,66.27
2023-12-16T22:17:17.453Z,65.87
2023-12-16T22:19:56.973Z,67.03
2023-12-16T22:22:27.337Z,66.70
2023-12-16T22:24:55.769Z,69.20
2023-12-16T22:27:23.865Z,69.27
2023-12-16T22:29:52.987Z,67.20
2023-12-16T22:32:20.966Z,67.23
2023-12-16T22:34:49.185Z,67.73
2023-12-16T22:37:18.007Z,65.03
2023-12-16T22:39:47.313Z,64.87
2023-12-16T22:42:18.070Z,66.00
2023-12-16T22:44:47.717Z,63.60
2023-12-16T22:47:15.805Z,64.23
2023-12-16T22:49:44.047Z,67.73
2023-12-16T22:52:12.181Z,66.33
2023-12-16T22:54:40.119Z,64.50
2023-12-16T22:57:09.425Z,65.90
2023-12-16T22:59:37.439Z,69.33
2023-12-16T23:02:05.711Z,65.67
2023-12-16T23:04:33.644Z,65.23
2023-12-16T23:07:01.577Z,64.63
2023-12-16T23:09:29.769Z,67.10
2023-12-16T23:11:58.027Z,65.90
2023-12-16T23:14:27.309Z,67.40
2023-12-16T23:16:55.229Z,69.17
2023-12-16T23:19:23.913Z,67.90
2023-12-16T23:21:52.578Z,72.67
2023-12-16T23:24:20.625Z,69.53
2023-12-16T23:26:48.624Z,71.57
2023-12-16T23:29:16.592Z,71.70
2023-12-16T23:31:45.910Z,68.87
2023-12-16T23:34:14.031Z,67.73
2023-12-16T23:36:42.021Z,68.33
2023-12-16T23:39:09.972Z,68.60
2023-12-16T23:41:38.043Z,69.10
2023-12-16T23:44:06.520Z,69.17
2023-12-16T23:46:34.420Z,67.57
2023-12-16T23:49:03.878Z,65.40
2023-12-16T23:51:31.922Z,69.60
2023-12-16T23:54:00.000Z,65.90
2023-12-16T23:56:27.935Z,65.97
2023-12-16T23:58:55.842Z,65.27
